Terminal Aerodrome Forecast
Issued by NWS

Home | Current Version | Previous Version | Graphics & Text | Print | Product List | Glossary Off
Versions: 1 2 3 4 5 6 7 8 9 10 11 12 13 14 15 16 17 18 19

000
FTUS43 KGRB 021600 AAA
TAFMTW
TAF AMD
KMTW 021613Z 0216/0312 13003KT 5SM BR VCSH SCT004 OVC030
      TEMPO 0216/0218 2SM -RA BR OVC004
     FM021800 14003KT 4SM BR BKN015 OVC025
     FM022100 14007KT 5SM -RA BR OVC015
     FM030000 11005KT 2SM RA BR OVC009
     FM030500 21005KT 1/2SM -RA FG OVC004
     FM031100 29008KT 2SM BR VCSH BKN009=

USA.gov is the U.S. government's official web portal to all federal, state and local government web resources and services.